sensor_id;sensor_type;location;lat;lon;timestamp;P1;durP1;ratioP1;P2;durP2;ratioP2
68800;SDS011;55784;50.734;7.086;2023-11-21T00:02:18;11.87;;;3.07;;
68800;SDS011;55784;50.734;7.086;2023-11-21T00:04:43;8.80;;;3.40;;
68800;SDS011;55784;50.734;7.086;2023-11-21T00:07:09;9.63;;;3.17;;
68800;SDS011;55784;50.734;7.086;2023-11-21T00:09:34;8.50;;;3.07;;
68800;SDS011;55784;50.734;7.086;2023-11-21T00:12:01;8.35;;;2.90;;
68800;SDS011;55784;50.734;7.086;2023-11-21T00:14:27;9.35;;;3.10;;
68800;SDS011;55784;50.734;7.086;2023-11-21T00:16:52;9.23;;;3.13;;
68800;SDS011;55784;50.734;7.086;2023-11-21T00:19:18;8.33;;;3.10;;
68800;SDS011;55784;50.734;7.086;2023-11-21T00:21:43;8.97;;;2.90;;
68800;SDS011;55784;50.734;7.086;2023-11-21T00:24:10;10.35;;;3.33;;
68800;SDS011;55784;50.734;7.086;2023-11-21T00:26:38;9.73;;;3.40;;
68800;SDS011;55784;50.734;7.086;2023-11-21T00:29:04;10.07;;;3.67;;
68800;SDS011;55784;50.734;7.086;2023-11-21T00:31:32;9.93;;;3.53;;
68800;SDS011;55784;50.734;7.086;2023-11-21T00:33:58;9.70;;;3.50;;
68800;SDS011;55784;50.734;7.086;2023-11-21T00:36:24;9.73;;;3.50;;
68800;SDS011;55784;50.734;7.086;2023-11-21T00:38:50;9.70;;;3.40;;
68800;SDS011;55784;50.734;7.086;2023-11-21T00:41:16;13.07;;;4.03;;
68800;SDS011;55784;50.734;7.086;2023-11-21T00:43:41;10.32;;;3.80;;
68800;SDS011;55784;50.734;7.086;2023-11-21T00:46:07;11.33;;;4.00;;
68800;SDS011;55784;50.734;7.086;2023-11-21T00:48:32;11.27;;;4.00;;
68800;SDS011;55784;50.734;7.086;2023-11-21T00:50:58;11.85;;;4.38;;
68800;SDS011;55784;50.734;7.086;2023-11-21T00:53:23;13.00;;;4.43;;
68800;SDS011;55784;50.734;7.086;2023-11-21T00:55:49;13.00;;;4.73;;
68800;SDS011;55784;50.734;7.086;2023-11-21T00:58:14;13.03;;;4.40;;
68800;SDS011;55784;50.734;7.086;2023-11-21T01:00:39;11.73;;;4.43;;
68800;SDS011;55784;50.734;7.086;2023-11-21T01:03:05;12.13;;;4.30;;
68800;SDS011;55784;50.734;7.086;2023-11-21T01:05:30;11.83;;;4.30;;
68800;SDS011;55784;50.734;7.086;2023-11-21T01:07:55;12.73;;;4.65;;
68800;SDS011;55784;50.734;7.086;2023-11-21T01:10:21;13.60;;;5.03;;
68800;SDS011;55784;50.734;7.086;2023-11-21T01:12:46;13.57;;;4.80;;
68800;SDS011;55784;50.734;7.086;2023-11-21T01:15:12;15.03;;;5.37;;
68800;SDS011;55784;50.734;7.086;2023-11-21T01:17:37;13.20;;;5.37;;
68800;SDS011;55784;50.734;7.086;2023-11-21T01:20:03;15.65;;;5.55;;
68800;SDS011;55784;50.734;7.086;2023-11-21T01:22:36;14.32;;;5.82;;
68800;SDS011;55784;50.734;7.086;2023-11-21T01:25:01;14.57;;;5.30;;
68800;SDS011;55784;50.734;7.086;2023-11-21T01:27:29;17.77;;;5.60;;
68800;SDS011;55784;50.734;7.086;2023-11-21T01:29:54;19.40;;;5.80;;
68800;SDS011;55784;50.734;7.086;2023-11-21T01:32:20;15.73;;;5.90;;
68800;SDS011;55784;50.734;7.086;2023-11-21T01:34:45;17.10;;;6.33;;
68800;SDS011;55784;50.734;7.086;2023-11-21T01:37:14;15.25;;;5.45;;
68800;SDS011;55784;50.734;7.086;2023-11-21T01:39:39;16.30;;;6.23;;
68800;SDS011;55784;50.734;7.086;2023-11-21T01:42:05;15.88;;;6.32;;
68800;SDS011;55784;50.734;7.086;2023-11-21T01:44:30;15.10;;;5.77;;
68800;SDS011;55784;50.734;7.086;2023-11-21T01:46:56;15.83;;;6.13;;
68800;SDS011;55784;50.734;7.086;2023-11-21T01:49:22;15.88;;;5.97;;
68800;SDS011;55784;50.734;7.086;2023-11-21T01:51:48;16.60;;;6.70;;
68800;SDS011;55784;50.734;7.086;2023-11-21T01:54:16;15.77;;;6.20;;
68800;SDS011;55784;50.734;7.086;2023-11-21T01:56:43;15.63;;;6.18;;
68800;SDS011;55784;50.734;7.086;2023-11-21T01:59:11;14.48;;;5.75;;
68800;SDS011;55784;50.734;7.086;2023-11-21T02:01:39;15.23;;;5.68;;
68800;SDS011;55784;50.734;7.086;2023-11-21T02:04:04;15.20;;;5.40;;
68800;SDS011;55784;50.734;7.086;2023-11-21T02:06:30;13.77;;;5.60;;
68800;SDS011;55784;50.734;7.086;2023-11-21T02:08:56;16.80;;;5.55;;
68800;SDS011;55784;50.734;7.086;2023-11-21T02:11:21;13.50;;;5.07;;
68800;SDS011;55784;50.734;7.086;2023-11-21T02:13:47;15.43;;;5.47;;
68800;SDS011;55784;50.734;7.086;2023-11-21T02:19:36;14.77;;;5.60;;
68800;SDS011;55784;50.734;7.086;2023-11-21T02:22:02;15.57;;;5.33;;
68800;SDS011;55784;50.734;7.086;2023-11-21T02:24:31;14.43;;;5.35;;
68800;SDS011;55784;50.734;7.086;2023-11-21T02:26:56;14.03;;;5.40;;
68800;SDS011;55784;50.734;7.086;2023-11-21T02:29:22;13.02;;;4.97;;
68800;SDS011;55784;50.734;7.086;2023-11-21T03:08:08;17.98;;;6.43;;
68800;SDS011;55784;50.734;7.086;2023-11-21T03:10:41;17.10;;;6.93;;
68800;SDS011;55784;50.734;7.086;2023-11-21T03:13:10;20.23;;;7.30;;
68800;SDS011;55784;50.734;7.086;2023-11-21T03:15:43;18.42;;;7.93;;
68800;SDS011;55784;50.734;7.086;2023-11-21T03:20:43;20.90;;;7.53;;
68800;SDS011;55784;50.734;7.086;2023-11-21T03:28:30;23.77;;;9.87;;
68800;SDS011;55784;50.734;7.086;2023-11-21T03:31:02;27.30;;;10.45;;
68800;SDS011;55784;50.734;7.086;2023-11-21T03:33:50;27.02;;;10.88;;
68800;SDS011;55784;50.734;7.086;2023-11-21T03:36:19;29.35;;;11.02;;
68800;SDS011;55784;50.734;7.086;2023-11-21T03:38:51;25.65;;;10.88;;
68800;SDS011;55784;50.734;7.086;2023-11-21T03:41:17;28.30;;;10.30;;
68800;SDS011;55784;50.734;7.086;2023-11-21T03:43:45;24.73;;;9.73;;
68800;SDS011;55784;50.734;7.086;2023-11-21T03:46:13;25.60;;;9.52;;
68800;SDS011;55784;50.734;7.086;2023-11-21T03:48:45;25.80;;;10.40;;
68800;SDS011;55784;50.734;7.086;2023-11-21T03:51:28;26.58;;;11.15;;
68800;SDS011;55784;50.734;7.086;2023-11-21T03:56:32;25.65;;;10.40;;
68800;SDS011;55784;50.734;7.086;2023-11-21T03:59:02;25.52;;;10.55;;
68800;SDS011;55784;50.734;7.086;2023-11-21T04:17:10;30.48;;;11.30;;
68800;SDS011;55784;50.734;7.086;2023-11-21T04:32:38;23.85;;;9.88;;
68800;SDS011;55784;50.734;7.086;2023-11-21T04:35:20;24.30;;;9.40;;
68800;SDS011;55784;50.734;7.086;2023-11-21T04:38:03;26.88;;;9.50;;
68800;SDS011;55784;50.734;7.086;2023-11-21T04:40:41;24.88;;;9.57;;
68800;SDS011;55784;50.734;7.086;2023-11-21T04:43:21;25.37;;;9.30;;
68800;SDS011;55784;50.734;7.086;2023-11-21T04:45:54;25.88;;;9.60;;
68800;SDS011;55784;50.734;7.086;2023-11-21T04:48:34;27.65;;;9.82;;
68800;SDS011;55784;50.734;7.086;2023-11-21T05:04:15;27.02;;;9.32;;
68800;SDS011;55784;50.734;7.086;2023-11-21T05:10:41;21.80;;;8.77;;
68800;SDS011;55784;50.734;7.086;2023-11-21T05:48:11;28.23;;;9.77;;
68800;SDS011;55784;50.734;7.086;2023-11-21T05:50:37;26.30;;;9.57;;
68800;SDS011;55784;50.734;7.086;2023-11-21T06:50:21;25.98;;;7.40;;
68800;SDS011;55784;50.734;7.086;2023-11-21T06:55:33;26.40;;;8.30;;
68800;SDS011;55784;50.734;7.086;2023-11-21T06:58:00;26.85;;;8.18;;
68800;SDS011;55784;50.734;7.086;2023-11-21T07:00:25;25.88;;;7.53;;
68800;SDS011;55784;50.734;7.086;2023-11-21T07:02:52;22.40;;;6.28;;
68800;SDS011;55784;50.734;7.086;2023-11-21T07:05:21;22.70;;;6.90;;
68800;SDS011;55784;50.734;7.086;2023-11-21T07:07:47;24.83;;;7.32;;
68800;SDS011;55784;50.734;7.086;2023-11-21T07:10:13;22.85;;;6.90;;
68800;SDS011;55784;50.734;7.086;2023-11-21T07:12:42;22.95;;;7.35;;
68800;SDS011;55784;50.734;7.086;2023-11-21T07:15:07;25.43;;;7.63;;
68800;SDS011;55784;50.734;7.086;2023-11-21T07:17:36;23.08;;;7.40;;
68800;SDS011;55784;50.734;7.086;2023-11-21T07:20:03;21.87;;;7.57;;
68800;SDS011;55784;50.734;7.086;2023-11-21T07:22:28;25.67;;;7.28;;
68800;SDS011;55784;50.734;7.086;2023-11-21T07:24:54;28.23;;;7.70;;
68800;SDS011;55784;50.734;7.086;2023-11-21T07:27:21;26.27;;;8.05;;
68800;SDS011;55784;50.734;7.086;2023-11-21T07:29:46;21.43;;;7.10;;
68800;SDS011;55784;50.734;7.086;2023-11-21T07:32:13;22.13;;;7.28;;
68800;SDS011;55784;50.734;7.086;2023-11-21T07:34:39;26.05;;;7.32;;
68800;SDS011;55784;50.734;7.086;2023-11-21T07:37:05;22.70;;;7.33;;
68800;SDS011;55784;50.734;7.086;2023-11-21T07:39:30;22.42;;;6.80;;
68800;SDS011;55784;50.734;7.086;2023-11-21T07:41:56;21.13;;;7.17;;
68800;SDS011;55784;50.734;7.086;2023-11-21T07:44:22;22.73;;;6.97;;
68800;SDS011;55784;50.734;7.086;2023-11-21T07:46:48;25.55;;;7.32;;
68800;SDS011;55784;50.734;7.086;2023-11-21T07:49:27;22.23;;;7.63;;
68800;SDS011;55784;50.734;7.086;2023-11-21T07:51:52;21.63;;;6.68;;
68800;SDS011;55784;50.734;7.086;2023-11-21T07:54:21;23.42;;;6.80;;
68800;SDS011;55784;50.734;7.086;2023-11-21T07:56:55;24.17;;;7.10;;
68800;SDS011;55784;50.734;7.086;2023-11-21T07:59:40;21.83;;;7.43;;
68800;SDS011;55784;50.734;7.086;2023-11-21T08:05:02;25.73;;;8.02;;
68800;SDS011;55784;50.734;7.086;2023-11-21T08:07:38;20.27;;;6.97;;
68800;SDS011;55784;50.734;7.086;2023-11-21T08:10:26;20.75;;;7.32;;
68800;SDS011;55784;50.734;7.086;2023-11-21T08:13:03;21.85;;;6.93;;
68800;SDS011;55784;50.734;7.086;2023-11-21T08:15:29;22.98;;;7.00;;
68800;SDS011;55784;50.734;7.086;2023-11-21T08:18:01;23.40;;;6.95;;
68800;SDS011;55784;50.734;7.086;2023-11-21T08:20:27;22.48;;;7.10;;
68800;SDS011;55784;50.734;7.086;2023-11-21T08:22:53;24.53;;;7.17;;
68800;SDS011;55784;50.734;7.086;2023-11-21T08:25:19;20.38;;;7.05;;
68800;SDS011;55784;50.734;7.086;2023-11-21T08:27:45;26.30;;;8.05;;
68800;SDS011;55784;50.734;7.086;2023-11-21T08:30:11;25.95;;;8.15;;
68800;SDS011;55784;50.734;7.086;2023-11-21T08:32:38;26.98;;;7.95;;
68800;SDS011;55784;50.734;7.086;2023-11-21T08:35:04;28.10;;;7.75;;
68800;SDS011;55784;50.734;7.086;2023-11-21T08:37:30;20.77;;;6.80;;
68800;SDS011;55784;50.734;7.086;2023-11-21T08:39:58;27.23;;;8.25;;
68800;SDS011;55784;50.734;7.086;2023-11-21T08:42:24;23.83;;;8.18;;
68800;SDS011;55784;50.734;7.086;2023-11-21T08:44:50;25.23;;;8.30;;
68800;SDS011;55784;50.734;7.086;2023-11-21T08:47:16;23.35;;;7.28;;
68800;SDS011;55784;50.734;7.086;2023-11-21T08:49:42;20.30;;;6.90;;
68800;SDS011;55784;50.734;7.086;2023-11-21T08:52:07;21.20;;;7.25;;
68800;SDS011;55784;50.734;7.086;2023-11-21T08:54:33;20.83;;;6.80;;
68800;SDS011;55784;50.734;7.086;2023-11-21T08:56:59;22.83;;;6.85;;
68800;SDS011;55784;50.734;7.086;2023-11-21T08:59:25;20.98;;;7.43;;
68800;SDS011;55784;50.734;7.086;2023-11-21T09:01:51;20.33;;;6.65;;
68800;SDS011;55784;50.734;7.086;2023-11-21T09:04:16;20.33;;;7.20;;
68800;SDS011;55784;50.734;7.086;2023-11-21T09:06:42;23.37;;;7.13;;
68800;SDS011;55784;50.734;7.086;2023-11-21T09:09:07;22.97;;;7.47;;
68800;SDS011;55784;50.734;7.086;2023-11-21T09:11:35;21.75;;;7.07;;
68800;SDS011;55784;50.734;7.086;2023-11-21T09:14:10;21.27;;;6.87;;
68800;SDS011;55784;50.734;7.086;2023-11-21T09:16:38;22.42;;;7.15;;
68800;SDS011;55784;50.734;7.086;2023-11-21T09:19:04;23.35;;;7.95;;
68800;SDS011;55784;50.734;7.086;2023-11-21T09:21:30;25.17;;;8.05;;
68800;SDS011;55784;50.734;7.086;2023-11-21T09:23:55;26.17;;;8.47;;
68800;SDS011;55784;50.734;7.086;2023-11-21T09:26:21;27.27;;;8.37;;
68800;SDS011;55784;50.734;7.086;2023-11-21T09:28:46;28.40;;;9.47;;
68800;SDS011;55784;50.734;7.086;2023-11-21T09:31:13;27.20;;;9.52;;
68800;SDS011;55784;50.734;7.086;2023-11-21T09:33:41;28.35;;;8.45;;
68800;SDS011;55784;50.734;7.086;2023-11-21T09:36:11;26.48;;;9.25;;
68800;SDS011;55784;50.734;7.086;2023-11-21T09:38:37;30.00;;;9.23;;
68800;SDS011;55784;50.734;7.086;2023-11-21T09:41:04;28.73;;;9.48;;
68800;SDS011;55784;50.734;7.086;2023-11-21T09:43:32;28.80;;;9.43;;
68800;SDS011;55784;50.734;7.086;2023-11-21T09:46:02;27.73;;;10.15;;
68800;SDS011;55784;50.734;7.086;2023-11-21T09:48:31;29.83;;;9.93;;
68800;SDS011;55784;50.734;7.086;2023-11-21T09:50:58;28.30;;;9.38;;
68800;SDS011;55784;50.734;7.086;2023-11-21T09:53:24;29.73;;;9.40;;
68800;SDS011;55784;50.734;7.086;2023-11-21T09:55:53;28.65;;;10.02;;
68800;SDS011;55784;50.734;7.086;2023-11-21T09:58:19;29.47;;;9.93;;
68800;SDS011;55784;50.734;7.086;2023-11-21T10:00:47;30.20;;;10.48;;
68800;SDS011;55784;50.734;7.086;2023-11-21T10:03:13;31.17;;;10.82;;
68800;SDS011;55784;50.734;7.086;2023-11-21T10:05:39;30.98;;;10.60;;
68800;SDS011;55784;50.734;7.086;2023-11-21T10:08:10;31.80;;;10.77;;
68800;SDS011;55784;50.734;7.086;2023-11-21T10:10:36;28.60;;;10.37;;
68800;SDS011;55784;50.734;7.086;2023-11-21T10:13:04;27.98;;;10.27;;
68800;SDS011;55784;50.734;7.086;2023-11-21T10:15:33;29.40;;;10.50;;
68800;SDS011;55784;50.734;7.086;2023-11-21T10:18:03;30.80;;;10.45;;
68800;SDS011;55784;50.734;7.086;2023-11-21T10:20:29;33.75;;;10.68;;
68800;SDS011;55784;50.734;7.086;2023-11-21T10:22:55;28.00;;;9.87;;
68800;SDS011;55784;50.734;7.086;2023-11-21T10:25:21;30.35;;;10.70;;
68800;SDS011;55784;50.734;7.086;2023-11-21T10:27:47;29.38;;;10.52;;
68800;SDS011;55784;50.734;7.086;2023-11-21T10:30:16;28.33;;;10.40;;
68800;SDS011;55784;50.734;7.086;2023-11-21T10:32:42;35.10;;;10.85;;
68800;SDS011;55784;50.734;7.086;2023-11-21T10:35:09;30.70;;;9.57;;
68800;SDS011;55784;50.734;7.086;2023-11-21T10:37:38;32.05;;;10.32;;
68800;SDS011;55784;50.734;7.086;2023-11-21T10:40:05;26.20;;;9.25;;
68800;SDS011;55784;50.734;7.086;2023-11-21T10:42:37;28.33;;;9.35;;
68800;SDS011;55784;50.734;7.086;2023-11-21T10:45:06;29.33;;;8.95;;
68800;SDS011;55784;50.734;7.086;2023-11-21T10:47:39;28.80;;;9.38;;
68800;SDS011;55784;50.734;7.086;2023-11-21T10:50:05;32.53;;;9.80;;
68800;SDS011;55784;50.734;7.086;2023-11-21T10:52:30;26.93;;;9.20;;
68800;SDS011;55784;50.734;7.086;2023-11-21T10:54:56;27.37;;;9.63;;
68800;SDS011;55784;50.734;7.086;2023-11-21T10:57:24;28.05;;;9.23;;
68800;SDS011;55784;50.734;7.086;2023-11-21T10:59:50;27.75;;;9.07;;
68800;SDS011;55784;50.734;7.086;2023-11-21T11:04:53;30.75;;;9.88;;
68800;SDS011;55784;50.734;7.086;2023-11-21T11:07:20;30.70;;;9.65;;
68800;SDS011;55784;50.734;7.086;2023-11-21T11:09:50;30.45;;;10.77;;
68800;SDS011;55784;50.734;7.086;2023-11-21T11:12:16;29.43;;;9.50;;
68800;SDS011;55784;50.734;7.086;2023-11-21T11:14:42;29.48;;;9.93;;
68800;SDS011;55784;50.734;7.086;2023-11-21T11:17:09;30.48;;;9.57;;
68800;SDS011;55784;50.734;7.086;2023-11-21T11:19:35;32.45;;;10.38;;
68800;SDS011;55784;50.734;7.086;2023-11-21T11:25:07;32.63;;;11.00;;
68800;SDS011;55784;50.734;7.086;2023-11-21T11:28:07;31.17;;;10.18;;
68800;SDS011;55784;50.734;7.086;2023-11-21T11:34:15;25.40;;;9.20;;
68800;SDS011;55784;50.734;7.086;2023-11-21T11:36:55;28.73;;;9.75;;
68800;SDS011;55784;50.734;7.086;2023-11-21T11:39:29;30.33;;;10.95;;
68800;SDS011;55784;50.734;7.086;2023-11-21T11:41:56;29.13;;;9.57;;
68800;SDS011;55784;50.734;7.086;2023-11-21T11:52:39;29.00;;;10.77;;
68800;SDS011;55784;50.734;7.086;2023-11-21T11:55:14;32.22;;;10.45;;
68800;SDS011;55784;50.734;7.086;2023-11-21T11:57:44;31.33;;;11.55;;
68800;SDS011;55784;50.734;7.086;2023-11-21T12:00:20;32.50;;;10.90;;
68800;SDS011;55784;50.734;7.086;2023-11-21T12:02:52;33.28;;;11.60;;
68800;SDS011;55784;50.734;7.086;2023-11-21T12:05:20;33.20;;;11.52;;
68800;SDS011;55784;50.734;7.086;2023-11-21T12:07:48;32.35;;;10.20;;
68800;SDS011;55784;50.734;7.086;2023-11-21T12:10:20;30.85;;;10.05;;
68800;SDS011;55784;50.734;7.086;2023-11-21T12:12:54;24.90;;;8.50;;
68800;SDS011;55784;50.734;7.086;2023-11-21T12:15:22;23.52;;;8.80;;
68800;SDS011;55784;50.734;7.086;2023-11-21T12:17:48;28.60;;;9.93;;
68800;SDS011;55784;50.734;7.086;2023-11-21T12:20:14;26.60;;;9.48;;
68800;SDS011;55784;50.734;7.086;2023-11-21T12:22:43;28.25;;;10.15;;
68800;SDS011;55784;50.734;7.086;2023-11-21T12:25:12;29.50;;;9.57;;
68800;SDS011;55784;50.734;7.086;2023-11-21T12:27:41;28.02;;;9.75;;
68800;SDS011;55784;50.734;7.086;2023-11-21T12:30:07;28.58;;;10.05;;
68800;SDS011;55784;50.734;7.086;2023-11-21T12:32:38;24.55;;;8.82;;
68800;SDS011;55784;50.734;7.086;2023-11-21T12:35:04;28.73;;;9.03;;
68800;SDS011;55784;50.734;7.086;2023-11-21T12:37:31;26.27;;;8.93;;
68800;SDS011;55784;50.734;7.086;2023-11-21T12:39:57;27.20;;;8.32;;
68800;SDS011;55784;50.734;7.086;2023-11-21T12:42:23;23.00;;;7.77;;
68800;SDS011;55784;50.734;7.086;2023-11-21T12:45:05;23.30;;;7.72;;
68800;SDS011;55784;50.734;7.086;2023-11-21T12:47:39;26.42;;;8.20;;
68800;SDS011;55784;50.734;7.086;2023-11-21T12:50:05;23.45;;;8.23;;
68800;SDS011;55784;50.734;7.086;2023-11-21T12:52:32;24.58;;;8.60;;
68800;SDS011;55784;50.734;7.086;2023-11-21T12:54:57;27.77;;;8.70;;
68800;SDS011;55784;50.734;7.086;2023-11-21T12:57:26;27.35;;;8.90;;
68800;SDS011;55784;50.734;7.086;2023-11-21T12:59:56;22.23;;;8.32;;
68800;SDS011;55784;50.734;7.086;2023-11-21T13:02:22;27.65;;;9.68;;
68800;SDS011;55784;50.734;7.086;2023-11-21T13:04:51;25.55;;;8.52;;
68800;SDS011;55784;50.734;7.086;2023-11-21T13:07:18;27.92;;;8.95;;
68800;SDS011;55784;50.734;7.086;2023-11-21T13:09:45;24.58;;;8.35;;
68800;SDS011;55784;50.734;7.086;2023-11-21T13:12:10;26.60;;;8.32;;
68800;SDS011;55784;50.734;7.086;2023-11-21T13:14:37;24.13;;;8.82;;
68800;SDS011;55784;50.734;7.086;2023-11-21T13:17:05;24.37;;;8.40;;
68800;SDS011;55784;50.734;7.086;2023-11-21T13:19:30;26.30;;;8.73;;
68800;SDS011;55784;50.734;7.086;2023-11-21T13:21:56;23.73;;;7.87;;
68800;SDS011;55784;50.734;7.086;2023-11-21T13:24:21;21.73;;;8.57;;
68800;SDS011;55784;50.734;7.086;2023-11-21T13:26:46;26.67;;;7.97;;
68800;SDS011;55784;50.734;7.086;2023-11-21T13:29:12;28.67;;;8.55;;
68800;SDS011;55784;50.734;7.086;2023-11-21T13:31:38;26.20;;;8.53;;
68800;SDS011;55784;50.734;7.086;2023-11-21T13:34:04;25.27;;;7.93;;
68800;SDS011;55784;50.734;7.086;2023-11-21T13:36:30;23.75;;;8.10;;
68800;SDS011;55784;50.734;7.086;2023-11-21T13:38:57;24.42;;;8.25;;
68800;SDS011;55784;50.734;7.086;2023-11-21T13:41:23;25.52;;;9.18;;
68800;SDS011;55784;50.734;7.086;2023-11-21T13:43:55;23.20;;;8.73;;
68800;SDS011;55784;50.734;7.086;2023-11-21T13:46:29;22.48;;;7.13;;
68800;SDS011;55784;50.734;7.086;2023-11-21T13:48:59;25.98;;;8.40;;
68800;SDS011;55784;50.734;7.086;2023-11-21T13:51:25;21.10;;;7.72;;
68800;SDS011;55784;50.734;7.086;2023-11-21T13:54:05;22.05;;;8.25;;
68800;SDS011;55784;50.734;7.086;2023-11-21T13:56:34;23.77;;;7.75;;
68800;SDS011;55784;50.734;7.086;2023-11-21T13:59:00;24.00;;;7.80;;
68800;SDS011;55784;50.734;7.086;2023-11-21T14:01:34;23.63;;;7.72;;
68800;SDS011;55784;50.734;7.086;2023-11-21T14:04:32;23.35;;;8.50;;
68800;SDS011;55784;50.734;7.086;2023-11-21T14:06:57;24.38;;;7.60;;
68800;SDS011;55784;50.734;7.086;2023-11-21T14:09:25;22.60;;;7.65;;
68800;SDS011;55784;50.734;7.086;2023-11-21T14:11:57;24.52;;;7.82;;
68800;SDS011;55784;50.734;7.086;2023-11-21T14:14:25;23.45;;;7.35;;
68800;SDS011;55784;50.734;7.086;2023-11-21T14:16:52;24.80;;;7.78;;
68800;SDS011;55784;50.734;7.086;2023-11-21T14:19:18;24.52;;;8.02;;
68800;SDS011;55784;50.734;7.086;2023-11-21T14:21:44;23.77;;;8.07;;
68800;SDS011;55784;50.734;7.086;2023-11-21T14:24:13;23.00;;;7.60;;
68800;SDS011;55784;50.734;7.086;2023-11-21T14:26:41;23.35;;;8.30;;
68800;SDS011;55784;50.734;7.086;2023-11-21T14:29:08;25.60;;;8.45;;
68800;SDS011;55784;50.734;7.086;2023-11-21T14:31:34;27.65;;;8.68;;
68800;SDS011;55784;50.734;7.086;2023-11-21T14:33:59;26.85;;;8.48;;
68800;SDS011;55784;50.734;7.086;2023-11-21T14:36:27;24.33;;;8.60;;
68800;SDS011;55784;50.734;7.086;2023-11-21T14:38:53;24.90;;;8.55;;
68800;SDS011;55784;50.734;7.086;2023-11-21T14:41:19;30.70;;;9.80;;
68800;SDS011;55784;50.734;7.086;2023-11-21T14:43:44;27.95;;;9.20;;
68800;SDS011;55784;50.734;7.086;2023-11-21T14:46:12;28.30;;;8.75;;
68800;SDS011;55784;50.734;7.086;2023-11-21T14:48:41;29.90;;;8.60;;
68800;SDS011;55784;50.734;7.086;2023-11-21T14:51:12;28.40;;;9.00;;
68800;SDS011;55784;50.734;7.086;2023-11-21T14:53:55;25.38;;;8.65;;
68800;SDS011;55784;50.734;7.086;2023-11-21T14:56:25;29.40;;;8.85;;
68800;SDS011;55784;50.734;7.086;2023-11-21T14:58:54;28.45;;;8.93;;
68800;SDS011;55784;50.734;7.086;2023-11-21T15:01:20;27.27;;;8.73;;
68800;SDS011;55784;50.734;7.086;2023-11-21T15:04:00;31.67;;;9.45;;
68800;SDS011;55784;50.734;7.086;2023-11-21T15:06:25;29.10;;;9.20;;
68800;SDS011;55784;50.734;7.086;2023-11-21T15:08:52;28.50;;;8.75;;
68800;SDS011;55784;50.734;7.086;2023-11-21T15:11:34;28.40;;;8.70;;
68800;SDS011;55784;50.734;7.086;2023-11-21T15:14:01;27.70;;;9.38;;
68800;SDS011;55784;50.734;7.086;2023-11-21T15:16:31;30.00;;;9.05;;
68800;SDS011;55784;50.734;7.086;2023-11-21T15:18:57;28.00;;;9.30;;
68800;SDS011;55784;50.734;7.086;2023-11-21T15:21:23;29.60;;;8.70;;
68800;SDS011;55784;50.734;7.086;2023-11-21T15:23:49;27.45;;;8.70;;
68800;SDS011;55784;50.734;7.086;2023-11-21T15:26:17;27.20;;;8.50;;
68800;SDS011;55784;50.734;7.086;2023-11-21T15:28:43;31.43;;;8.70;;
68800;SDS011;55784;50.734;7.086;2023-11-21T15:31:08;27.27;;;9.03;;
68800;SDS011;55784;50.734;7.086;2023-11-21T15:33:34;26.35;;;8.57;;
68800;SDS011;55784;50.734;7.086;2023-11-21T15:36:02;27.15;;;9.13;;
68800;SDS011;55784;50.734;7.086;2023-11-21T15:38:29;26.67;;;8.98;;
68800;SDS011;55784;50.734;7.086;2023-11-21T15:40:54;31.03;;;9.00;;
68800;SDS011;55784;50.734;7.086;2023-11-21T15:43:20;27.50;;;8.87;;
68800;SDS011;55784;50.734;7.086;2023-11-21T15:45:45;25.13;;;8.85;;
68800;SDS011;55784;50.734;7.086;2023-11-21T15:48:10;28.80;;;8.80;;
68800;SDS011;55784;50.734;7.086;2023-11-21T15:50:36;29.63;;;8.50;;
68800;SDS011;55784;50.734;7.086;2023-11-21T15:53:02;26.95;;;7.85;;
68800;SDS011;55784;50.734;7.086;2023-11-21T15:55:30;30.98;;;8.20;;
68800;SDS011;55784;50.734;7.086;2023-11-21T15:57:55;30.17;;;8.70;;
68800;SDS011;55784;50.734;7.086;2023-11-21T16:00:21;27.50;;;8.63;;
68800;SDS011;55784;50.734;7.086;2023-11-21T16:02:47;29.95;;;8.75;;
68800;SDS011;55784;50.734;7.086;2023-11-21T16:05:13;30.20;;;9.23;;
68800;SDS011;55784;50.734;7.086;2023-11-21T16:07:39;29.98;;;9.20;;
68800;SDS011;55784;50.734;7.086;2023-11-21T16:10:06;30.23;;;8.63;;
68800;SDS011;55784;50.734;7.086;2023-11-21T16:12:40;25.80;;;8.40;;
68800;SDS011;55784;50.734;7.086;2023-11-21T16:15:06;30.42;;;9.25;;
68800;SDS011;55784;50.734;7.086;2023-11-21T16:17:35;26.10;;;8.20;;
68800;SDS011;55784;50.734;7.086;2023-11-21T16:20:04;31.33;;;9.37;;
68800;SDS011;55784;50.734;7.086;2023-11-21T16:22:49;28.90;;;9.70;;
68800;SDS011;55784;50.734;7.086;2023-11-21T16:25:24;30.17;;;8.98;;
68800;SDS011;55784;50.734;7.086;2023-11-21T16:27:49;28.57;;;8.30;;
68800;SDS011;55784;50.734;7.086;2023-11-21T16:30:17;30.60;;;9.87;;
68800;SDS011;55784;50.734;7.086;2023-11-21T16:32:43;32.75;;;9.48;;
68800;SDS011;55784;50.734;7.086;2023-11-21T16:35:09;33.03;;;9.97;;
68800;SDS011;55784;50.734;7.086;2023-11-21T16:37:36;32.60;;;10.23;;
68800;SDS011;55784;50.734;7.086;2023-11-21T16:40:01;36.57;;;10.57;;
68800;SDS011;55784;50.734;7.086;2023-11-21T16:42:32;35.22;;;11.07;;
68800;SDS011;55784;50.734;7.086;2023-11-21T16:44:59;36.28;;;11.18;;
68800;SDS011;55784;50.734;7.086;2023-11-21T16:47:24;37.90;;;11.57;;
68800;SDS011;55784;50.734;7.086;2023-11-21T16:49:50;41.90;;;12.35;;
68800;SDS011;55784;50.734;7.086;2023-11-21T16:52:16;35.97;;;11.40;;
68800;SDS011;55784;50.734;7.086;2023-11-21T16:54:42;35.00;;;10.60;;
68800;SDS011;55784;50.734;7.086;2023-11-21T16:57:07;37.93;;;11.93;;
68800;SDS011;55784;50.734;7.086;2023-11-21T16:59:33;38.63;;;12.13;;
68800;SDS011;55784;50.734;7.086;2023-11-21T17:01:59;37.47;;;11.53;;
68800;SDS011;55784;50.734;7.086;2023-11-21T17:04:24;38.23;;;10.90;;
68800;SDS011;55784;50.734;7.086;2023-11-21T17:06:49;34.83;;;11.33;;
68800;SDS011;55784;50.734;7.086;2023-11-21T17:09:15;40.43;;;11.37;;
68800;SDS011;55784;50.734;7.086;2023-11-21T17:11:47;35.85;;;11.40;;
68800;SDS011;55784;50.734;7.086;2023-11-21T17:14:13;39.05;;;11.32;;
68800;SDS011;55784;50.734;7.086;2023-11-21T17:16:39;36.77;;;10.73;;
68800;SDS011;55784;50.734;7.086;2023-11-21T17:19:09;33.45;;;9.93;;
68800;SDS011;55784;50.734;7.086;2023-11-21T17:21:35;34.08;;;10.30;;
68800;SDS011;55784;50.734;7.086;2023-11-21T17:24:04;35.85;;;9.65;;
68800;SDS011;55784;50.734;7.086;2023-11-21T17:26:29;32.95;;;10.15;;
68800;SDS011;55784;50.734;7.086;2023-11-21T17:28:56;29.80;;;9.70;;
68800;SDS011;55784;50.734;7.086;2023-11-21T17:31:21;30.60;;;8.90;;
68800;SDS011;55784;50.734;7.086;2023-11-21T17:33:47;27.07;;;9.03;;
68800;SDS011;55784;50.734;7.086;2023-11-21T17:36:13;25.77;;;8.07;;
68800;SDS011;55784;50.734;7.086;2023-11-21T17:38:40;28.08;;;8.55;;
68800;SDS011;55784;50.734;7.086;2023-11-21T17:41:05;26.70;;;9.07;;
68800;SDS011;55784;50.734;7.086;2023-11-21T17:43:30;26.40;;;7.60;;
68800;SDS011;55784;50.734;7.086;2023-11-21T17:46:04;25.27;;;7.72;;
68800;SDS011;55784;50.734;7.086;2023-11-21T17:48:29;24.27;;;8.20;;
68800;SDS011;55784;50.734;7.086;2023-11-21T17:50:55;24.83;;;8.25;;
68800;SDS011;55784;50.734;7.086;2023-11-21T17:53:21;22.43;;;7.20;;
68800;SDS011;55784;50.734;7.086;2023-11-21T17:55:47;24.40;;;7.45;;
68800;SDS011;55784;50.734;7.086;2023-11-21T17:58:13;21.60;;;7.00;;
68800;SDS011;55784;50.734;7.086;2023-11-21T18:00:38;20.93;;;7.37;;
68800;SDS011;55784;50.734;7.086;2023-11-21T18:03:04;21.80;;;7.28;;
68800;SDS011;55784;50.734;7.086;2023-11-21T18:05:29;23.23;;;7.73;;
68800;SDS011;55784;50.734;7.086;2023-11-21T18:07:55;20.35;;;6.53;;
68800;SDS011;55784;50.734;7.086;2023-11-21T18:10:21;19.97;;;7.00;;